createdAt,value
2017-07-23T00:00:03.258Z,68.15
2017-07-23T00:00:43.770Z,68.21
2017-07-23T00:01:24.305Z,68.4
2017-07-23T00:02:04.760Z,68.24
2017-07-23T00:02:45.306Z,68.43
2017-07-23T00:03:25.908Z,68.4
2017-07-23T00:04:06.337Z,68.49
2017-07-23T00:04:46.902Z,68.59
2017-07-23T00:05:27.464Z,68.4
2017-07-23T00:06:07.968Z,68.4
2017-07-23T00:06:48.741Z,68.4
2017-07-23T00:07:29.256Z,68.49
2017-07-23T00:08:09.925Z,68.79
2017-07-23T00:08:50.390Z,68.59
2017-07-23T00:09:31.117Z,68.88
2017-07-23T00:10:11.632Z,69.27
2017-07-23T00:10:52.093Z,68.98
2017-07-23T00:11:32.680Z,68.98
2017-07-23T00:12:13.208Z,68.79
2017-07-23T00:12:53.706Z,68.88
2017-07-23T00:13:34.476Z,68.88
2017-07-23T00:14:15.186Z,68.88
2017-07-23T00:14:55.660Z,69.08
2017-07-23T00:15:37.021Z,68.88
2017-07-23T00:16:17.535Z,69.08
2017-07-23T00:16:58.042Z,68.59
2017-07-23T00:17:38.532Z,68.79
2017-07-23T00:18:19.147Z,68.69
2017-07-23T00:18:59.664Z,68.98
2017-07-23T00:19:40.210Z,68.98
2017-07-23T00:20:20.771Z,68.88
2017-07-23T00:21:01.372Z,69.08
2017-07-23T00:21:41.817Z,68.69
2017-07-23T00:22:22.337Z,68.59
2017-07-23T00:23:02.857Z,68.59
2017-07-23T00:23:43.337Z,68.59
2017-07-23T00:24:23.841Z,68.69
2017-07-23T00:25:04.325Z,68.79
2017-07-23T00:25:45.163Z,68.49
2017-07-23T00:26:25.597Z,68.69
2017-07-23T00:27:06.055Z,68.79
2017-07-23T00:27:46.609Z,68.49
2017-07-23T00:28:27.121Z,68.56
2017-07-23T00:29:07.642Z,68.56
2017-07-23T00:29:48.185Z,68.69
2017-07-23T00:30:28.676Z,68.88
2017-07-23T00:31:09.180Z,68.75
2017-07-23T00:31:49.690Z,68.46
2017-07-23T00:32:30.298Z,68.46
2017-07-23T00:33:10.773Z,69.14
2017-07-23T00:33:51.275Z,68.75
2017-07-23T00:34:31.843Z,68.95
2017-07-23T00:35:12.311Z,68.85
2017-07-23T00:35:52.807Z,69.24
2017-07-23T00:36:33.333Z,69.04
2017-07-23T00:37:13.839Z,69.14
2017-07-23T00:37:54.352Z,68.75
2017-07-23T00:38:34.823Z,69.04
2017-07-23T00:39:15.479Z,68.66
2017-07-23T00:39:55.972Z,68.85
2017-07-23T00:40:36.483Z,69.04
2017-07-23T00:41:17.022Z,69.33
2017-07-23T00:41:57.482Z,68.75
2017-07-23T00:42:38.011Z,68.95
2017-07-23T00:43:18.543Z,68.95
2017-07-23T00:43:59.068Z,68.46
2017-07-23T00:44:39.620Z,68.27
2017-07-23T00:45:20.098Z,68.85
2017-07-23T00:46:00.633Z,68.75
2017-07-23T00:46:41.035Z,68.85
2017-07-23T00:47:21.509Z,68.46
2017-07-23T00:48:02.015Z,68.85
2017-07-23T00:48:42.525Z,68.95
2017-07-23T00:49:23.032Z,68.75
2017-07-23T00:50:03.532Z,68.75
2017-07-23T00:50:44.018Z,68.66
2017-07-23T00:51:24.555Z,69.33
2017-07-23T00:52:05.074Z,68.75
2017-07-23T00:52:45.530Z,68.95
2017-07-23T00:53:26.174Z,68.66
2017-07-23T00:54:06.527Z,68.46
2017-07-23T00:54:47.033Z,68.82
2017-07-23T00:55:27.544Z,68.75
2017-07-23T00:56:08.056Z,68.66
2017-07-23T00:56:48.544Z,68.37
2017-07-23T00:57:29.018Z,68.56
2017-07-23T00:58:09.515Z,68.43
2017-07-23T00:58:50.014Z,68.52
2017-07-23T00:59:30.644Z,68.62
2017-07-23T01:00:11.114Z,68.37
2017-07-23T01:00:51.627Z,68.08
2017-07-23T01:01:32.190Z,68.27
2017-07-23T01:02:12.655Z,68.62
2017-07-23T01:02:53.277Z,68.62
2017-07-23T01:03:33.743Z,68.72
2017-07-23T01:04:14.257Z,68.62
2017-07-23T01:04:54.714Z,68.27
2017-07-23T01:05:35.224Z,68.37
2017-07-23T01:06:15.947Z,68.17
2017-07-23T01:06:56.406Z,68.43
2017-07-23T01:07:36.998Z,68.33
2017-07-23T01:08:17.469Z,68.62
2017-07-23T01:08:57.951Z,69.2
2017-07-23T01:09:38.474Z,68.91
2017-07-23T01:10:18.954Z,69.01
2017-07-23T01:10:59.500Z,68.72
2017-07-23T01:11:40.058Z,68.91
2017-07-23T01:12:20.494Z,68.62
2017-07-23T01:13:01.007Z,69.3
2017-07-23T01:13:41.495Z,69.88
2017-07-23T01:14:21.998Z,69.1
2017-07-23T01:15:02.624Z,69.4
2017-07-23T01:15:43.027Z,68.82
2017-07-23T01:16:23.561Z,68.72
2017-07-23T01:17:04.077Z,68.82
2017-07-23T01:17:44.545Z,68.91
2017-07-23T01:18:25.073Z,68.72
2017-07-23T01:19:05.541Z,68.72
2017-07-23T01:19:46.063Z,68.91
2017-07-23T01:20:26.596Z,68.91
2017-07-23T01:21:07.032Z,69.01
2017-07-23T01:21:47.513Z,68.72
2017-07-23T01:22:28.028Z,68.82
2017-07-23T01:23:08.549Z,68.82
2017-07-23T01:23:49.015Z,68.75
2017-07-23T01:24:29.555Z,68.66
2017-07-23T01:25:10.003Z,69.01
2017-07-23T01:25:50.492Z,69.1
2017-07-23T01:26:31.017Z,69.1
2017-07-23T01:27:11.607Z,68.82
2017-07-23T01:27:52.132Z,68.52
2017-07-23T01:28:32.680Z,68.72
2017-07-23T01:29:13.172Z,69.1
2017-07-23T01:29:53.731Z,68.46
2017-07-23T01:30:34.194Z,68.27
2017-07-23T01:31:14.677Z,68.27
2017-07-23T01:31:55.243Z,68.27
2017-07-23T01:32:35.780Z,68.27
2017-07-23T01:33:16.218Z,68.17
2017-07-23T01:33:56.733Z,68.46
2017-07-23T01:34:37.280Z,68.85
2017-07-23T01:35:17.802Z,68.27
2017-07-23T01:35:58.345Z,68.27
2017-07-23T01:36:38.797Z,68.46
2017-07-23T01:37:19.288Z,68.37
2017-07-23T01:37:59.796Z,68.27
2017-07-23T01:38:40.291Z,68.37
2017-07-23T01:39:20.839Z,68.27
2017-07-23T01:40:01.416Z,68.95
2017-07-23T01:40:41.980Z,68.91
2017-07-23T01:41:22.463Z,69.04
2017-07-23T01:42:02.949Z,69.04
2017-07-23T01:42:43.450Z,68.82
2017-07-23T01:43:23.972Z,68.62
2017-07-23T01:44:04.441Z,69.04
2017-07-23T01:44:44.976Z,69.3
2017-07-23T01:45:25.432Z,69.1
2017-07-23T01:46:05.948Z,69.4
2017-07-23T01:46:46.430Z,69.98
2017-07-23T01:47:26.908Z,69.3
2017-07-23T01:48:07.410Z,69.3
2017-07-23T01:48:47.905Z,69.49
2017-07-23T01:49:28.375Z,69.2
2017-07-23T01:50:09.010Z,69.49
2017-07-23T01:50:49.482Z,68.85
2017-07-23T01:51:29.993Z,68.85
2017-07-23T01:52:10.538Z,68.56
2017-07-23T01:52:50.961Z,68.85
2017-07-23T01:53:31.484Z,68.75
2017-07-23T01:54:11.947Z,69.04
2017-07-23T01:54:52.446Z,69.14
2017-07-23T01:55:32.930Z,69.24
2017-07-23T01:56:13.434Z,68.75
2017-07-23T01:56:53.943Z,68.75
2017-07-23T01:57:34.429Z,68.82
2017-07-23T01:58:14.905Z,69.2
2017-07-23T01:58:55.413Z,69.88
2017-07-23T01:59:35.896Z,69.78
2017-07-23T02:00:16.408Z,69.88
2017-07-23T02:00:56.906Z,69.94
2017-07-23T02:01:37.424Z,70.14
2017-07-23T02:02:17.902Z,69.98
2017-07-23T02:02:58.347Z,70.56
2017-07-23T02:03:38.880Z,69.84
2017-07-23T02:04:19.339Z,69.98
2017-07-23T02:04:59.839Z,71
2017-07-23T02:05:40.398Z,70.62
2017-07-23T02:06:20.901Z,71
2017-07-23T02:07:01.381Z,71
2017-07-23T02:07:41.916Z,70.72
2017-07-23T02:08:22.538Z,71
2017-07-23T02:09:03.098Z,71.04
2017-07-23T02:09:43.577Z,70.9
2017-07-23T02:10:24.077Z,71
2017-07-23T02:11:04.561Z,71.2
2017-07-23T02:11:45.075Z,71.39
2017-07-23T02:12:25.569Z,71.3
2017-07-23T02:13:06.090Z,71.68
2017-07-23T02:13:46.653Z,71.88
2017-07-23T02:14:27.383Z,71.88
2017-07-23T02:15:07.849Z,71.68
2017-07-23T02:15:48.350Z,71.78
2017-07-23T02:16:28.840Z,72.94
2017-07-23T02:17:09.346Z,72.84
2017-07-23T02:17:49.901Z,71.68
2017-07-23T02:18:30.411Z,72.36
2017-07-23T02:19:10.885Z,72.94
2017-07-23T02:19:51.429Z,72.55
2017-07-23T02:20:31.970Z,72.55
2017-07-23T02:21:12.423Z,72.26
2017-07-23T02:21:52.940Z,72.16
2017-07-23T02:22:33.407Z,72.06
2017-07-23T02:23:13.875Z,72.84
2017-07-23T02:23:54.378Z,73.03
2017-07-23T02:26:07.648Z,74.48
2017-07-23T02:26:48.148Z,74.29
2017-07-23T02:27:28.719Z,74.96
2017-07-23T02:28:09.202Z,74.77
2017-07-23T02:28:49.659Z,75.26
2017-07-23T02:29:30.251Z,74.38
2017-07-23T02:30:10.699Z,74.77
2017-07-23T02:30:51.191Z,75.06
2017-07-23T02:31:31.708Z,75.64
2017-07-23T02:32:12.252Z,75.84
2017-07-23T02:32:52.708Z,75.7
2017-07-23T02:33:33.213Z,76.03
2017-07-23T02:34:13.781Z,76.51
2017-07-23T02:34:54.241Z,76.18
2017-07-23T02:35:34.763Z,76.47
2017-07-23T02:36:15.299Z,76.37
2017-07-23T02:36:55.790Z,76.57
2017-07-23T02:37:36.256Z,76.86
2017-07-23T02:38:16.768Z,77.34
2017-07-23T02:38:57.249Z,77.34
2017-07-23T02:39:37.737Z,77.92
2017-07-23T02:40:18.268Z,77.73
2017-07-23T02:40:58.772Z,78.21
2017-07-23T02:41:39.272Z,78.41
2017-07-23T02:42:19.901Z,78.89
2017-07-23T02:43:00.377Z,79.62
2017-07-23T02:43:40.921Z,79.33
2017-07-23T02:44:21.557Z,80
2017-07-23T02:45:02.204Z,80.2
2017-07-23T02:45:42.562Z,80.58
2017-07-23T02:46:23.052Z,80.1
2017-07-23T02:47:03.566Z,80
2017-07-23T02:47:44.048Z,80.2
2017-07-23T02:48:24.596Z,80.64
2017-07-23T02:49:05.064Z,81.35
2017-07-23T02:49:45.585Z,81.35
2017-07-23T02:50:26.093Z,81.55
2017-07-23T02:51:06.615Z,81.74
2017-07-23T02:51:47.096Z,82.03
2017-07-23T02:52:27.717Z,81.93
2017-07-23T02:53:08.241Z,82.81
2017-07-23T02:53:48.769Z,83.29
2017-07-23T02:54:29.305Z,83.19
2017-07-23T02:55:09.797Z,83
2017-07-23T02:55:50.293Z,82.61
2017-07-23T02:56:30.781Z,82.03
2017-07-23T02:57:11.308Z,82.13
2017-07-23T02:57:51.757Z,82.38
2017-07-23T02:58:32.236Z,83.09
2017-07-23T02:59:12.785Z,83.09
2017-07-23T02:59:53.232Z,82.03
2017-07-23T03:00:33.741Z,82.38
2017-07-23T03:01:14.226Z,82.09
2017-07-23T03:01:54.743Z,82.42
2017-07-23T03:02:35.224Z,82.57
2017-07-23T03:03:15.743Z,82.09
2017-07-23T03:03:56.361Z,81.8
2017-07-23T03:04:36.854Z,82.09
2017-07-23T03:05:17.416Z,82.09
2017-07-23T03:05:57.873Z,83.05
2017-07-23T03:06:38.311Z,82.48
2017-07-23T03:07:18.801Z,82.67
2017-07-23T03:07:59.340Z,82.67
2017-07-23T03:08:39.809Z,82.57
2017-07-23T03:09:20.318Z,82.48
2017-07-23T03:10:00.786Z,82.28
2017-07-23T03:10:41.306Z,81.99
2017-07-23T03:11:21.862Z,83.11
2017-07-23T03:12:02.311Z,82.92
2017-07-23T03:12:42.834Z,82.96
2017-07-23T03:13:23.345Z,82.62
2017-07-23T03:14:03.838Z,82.43
2017-07-23T03:14:44.350Z,82.57
2017-07-23T03:15:24.837Z,82.38
2017-07-23T03:16:05.339Z,82.67
2017-07-23T03:16:45.809Z,83.05
2017-07-23T03:17:26.318Z,82.67
2017-07-23T03:18:06.844Z,82.38
2017-07-23T03:18:47.308Z,82.18
2017-07-23T03:19:27.869Z,83.05
2017-07-23T03:20:08.374Z,82.76
2017-07-23T03:20:48.863Z,82.38
2017-07-23T03:21:29.409Z,82.38
2017-07-23T03:22:09.859Z,82.76
2017-07-23T03:22:50.441Z,82.86
2017-07-23T03:23:31.007Z,82.18
2017-07-23T03:24:11.410Z,82.18
2017-07-23T03:24:51.905Z,82.57
2017-07-23T03:25:32.429Z,82.34
2017-07-23T03:26:12.853Z,83.3
2017-07-23T03:26:53.327Z,82.92
2017-07-23T03:27:33.885Z,82.62
2017-07-23T03:28:14.371Z,82.82
2017-07-23T03:28:54.892Z,82.62
2017-07-23T03:29:35.397Z,83.11
2017-07-23T03:30:15.831Z,82.34
2017-07-23T03:30:56.423Z,82.92
2017-07-23T03:31:36.893Z,82.76
2017-07-23T03:32:17.427Z,82.67
2017-07-23T03:32:57.954Z,81.9
2017-07-23T03:33:38.448Z,82.18
2017-07-23T03:34:18.976Z,82.48
2017-07-23T03:34:59.431Z,83.05
2017-07-23T03:35:39.943Z,83.44
2017-07-23T03:36:20.387Z,83.05
2017-07-23T03:37:00.962Z,81.41
2017-07-23T03:37:41.367Z,81.8
2017-07-23T03:38:21.887Z,81.51
2017-07-23T03:39:02.385Z,81.99
2017-07-23T03:39:42.897Z,82.05
2017-07-23T03:40:23.428Z,82.43
2017-07-23T03:41:03.958Z,82.72
2017-07-23T03:41:44.489Z,82.34
2017-07-23T03:42:25.013Z,82.53
2017-07-23T03:43:05.508Z,82.53
2017-07-23T03:43:45.974Z,81.95
2017-07-23T03:44:26.498Z,82.24
2017-07-23T03:45:06.983Z,82.53
2017-07-23T03:45:47.438Z,83.01
2017-07-23T03:46:27.941Z,82.92
2017-07-23T03:47:08.444Z,82.92
2017-07-23T03:47:48.948Z,82.43
2017-07-23T03:48:29.482Z,82.34
2017-07-23T03:49:09.966Z,81.85
2017-07-23T03:49:50.541Z,82.14
2017-07-23T03:50:31.014Z,82.28
2017-07-23T03:51:11.522Z,81.99
2017-07-23T03:51:52.031Z,81.6
2017-07-23T03:52:32.655Z,81.32
2017-07-23T03:53:13.144Z,81.35
2017-07-23T03:53:53.636Z,81.65
2017-07-23T03:54:34.131Z,82.13
2017-07-23T03:55:14.610Z,82.13
2017-07-23T03:55:55.148Z,81.84
2017-07-23T03:56:35.673Z,81.35
2017-07-23T03:57:16.160Z,81.55
2017-07-23T03:57:56.629Z,82.61
2017-07-23T03:58:37.133Z,82.13
2017-07-23T03:59:17.668Z,82.42
2017-07-23T03:59:58.150Z,81.55
2017-07-23T04:00:38.669Z,81.16
2017-07-23T04:01:19.174Z,81.55
2017-07-23T04:01:59.665Z,81.16
2017-07-23T04:02:40.163Z,80.97
2017-07-23T04:03:20.653Z,81.01
2017-07-23T04:04:01.214Z,80.33
2017-07-23T04:04:41.719Z,81.07
2017-07-23T04:05:22.154Z,80.72
2017-07-23T04:06:02.658Z,80.82
2017-07-23T04:06:43.174Z,80.43
2017-07-23T04:07:23.660Z,80.43
2017-07-23T04:08:04.162Z,80.24
2017-07-23T04:08:44.802Z,81.01
2017-07-23T04:09:25.270Z,80.14
2017-07-23T04:10:05.808Z,80.14
2017-07-23T04:10:46.367Z,80.82
2017-07-23T04:11:26.851Z,80.91
2017-07-23T04:12:07.389Z,81.4
2017-07-23T04:12:47.861Z,81.11
2017-07-23T04:13:28.333Z,81.4
2017-07-23T04:14:08.889Z,81.59
2017-07-23T04:14:49.358Z,81.4
2017-07-23T04:15:29.831Z,81.16
2017-07-23T04:16:10.331Z,80.2
2017-07-23T04:16:50.814Z,80.49
2017-07-23T04:17:31.338Z,80.05
2017-07-23T04:18:11.885Z,80
2017-07-23T04:18:52.337Z,79.91
2017-07-23T04:19:32.831Z,80.68
2017-07-23T04:20:13.381Z,80.1
2017-07-23T04:20:53.867Z,80.39
2017-07-23T04:21:34.381Z,80.49
2017-07-23T04:22:14.884Z,80.39
2017-07-23T04:22:55.383Z,80.49
2017-07-23T04:23:35.896Z,81.65
2017-07-23T04:24:16.311Z,80.97
2017-07-23T04:24:56.845Z,81.35
2017-07-23T04:25:37.296Z,81.35
2017-07-23T04:26:17.782Z,81.26
2017-07-23T04:26:58.287Z,81.26
2017-07-23T04:27:38.819Z,80.49
2017-07-23T04:28:19.280Z,80.97
2017-07-23T04:28:59.804Z,81.51
2017-07-23T04:29:40.249Z,81.35
2017-07-23T04:30:20.780Z,81.55
2017-07-23T04:31:01.458Z,80.87
2017-07-23T04:31:41.935Z,80.78
2017-07-23T04:32:22.436Z,81.16
2017-07-23T04:33:02.950Z,81.35
2017-07-23T04:33:43.442Z,81.26
2017-07-23T04:34:23.922Z,81.45
2017-07-23T04:35:04.432Z,81.35
2017-07-23T04:35:44.906Z,81.35
2017-07-23T04:36:25.381Z,81.16
2017-07-23T04:37:05.948Z,81.32
2017-07-23T04:37:46.412Z,81.32
2017-07-23T04:38:26.897Z,81.6
2017-07-23T04:39:07.354Z,81.6
2017-07-23T04:39:47.862Z,81.6
2017-07-23T04:40:28.350Z,82.09
2017-07-23T04:41:08.812Z,82.09
2017-07-23T04:41:49.381Z,81.41
2017-07-23T04:42:29.813Z,81.12
2017-07-23T04:43:10.348Z,81.12
2017-07-23T04:43:50.861Z,81.7
2017-07-23T04:44:31.309Z,81.12
2017-07-23T04:45:11.808Z,81.32
2017-07-23T04:45:52.261Z,81.51
2017-07-23T04:46:32.807Z,81.51
2017-07-23T04:47:13.420Z,81.41
2017-07-23T04:47:53.925Z,81.6
2017-07-23T04:48:34.455Z,81.6
2017-07-23T04:49:14.937Z,81.12
2017-07-23T04:49:55.463Z,81.12
2017-07-23T04:50:36.013Z,80.93
2017-07-23T04:51:16.488Z,80.35
2017-07-23T04:51:57.058Z,81.02
2017-07-23T04:52:37.580Z,80.64
2017-07-23T04:53:18.048Z,80.74
2017-07-23T04:53:58.534Z,80.64
2017-07-23T04:54:39.038Z,80.93
2017-07-23T04:55:19.575Z,79.91
2017-07-23T04:56:00.039Z,79.29
2017-07-23T04:56:40.522Z,78.91
2017-07-23T04:57:20.995Z,78.42
2017-07-23T04:58:01.515Z,77.84
2017-07-23T04:58:41.942Z,78.03
2017-07-23T04:59:22.464Z,77.46
2017-07-23T05:00:02.952Z,77.75
2017-07-23T05:00:43.457Z,77.55
2017-07-23T05:01:23.954Z,77.75
2017-07-23T05:02:04.503Z,77.75
2017-07-23T05:02:44.972Z,77.65
2017-07-23T05:03:25.439Z,77.55
2017-07-23T05:04:05.926Z,77.46
2017-07-23T05:04:46.429Z,77.36
2017-07-23T05:05:26.940Z,77.65
2017-07-23T05:06:07.484Z,77.46
2017-07-23T05:06:48.037Z,77.46
2017-07-23T05:07:28.524Z,76.98
2017-07-23T05:08:08.986Z,77.26
2017-07-23T05:08:49.515Z,76.53
2017-07-23T05:09:29.984Z,76.63
2017-07-23T05:10:10.468Z,75.95
2017-07-23T05:10:50.963Z,75.95
2017-07-23T05:11:31.488Z,75.57
2017-07-23T05:12:12.012Z,75.85
2017-07-23T05:12:52.486Z,74.51
2017-07-23T05:13:32.973Z,75.27
2017-07-23T05:14:13.514Z,75.47
2017-07-23T05:14:53.941Z,75.27
2017-07-23T05:15:34.477Z,75.57
2017-07-23T05:16:14.921Z,75.47
2017-07-23T05:16:55.447Z,75.85
2017-07-23T05:17:35.911Z,75.47
2017-07-23T05:18:16.385Z,75.37
2017-07-23T05:18:56.896Z,75.05
2017-07-23T05:19:37.382Z,74.99
2017-07-23T05:20:17.856Z,74.51
2017-07-23T05:20:58.321Z,74.79
2017-07-23T05:21:38.829Z,75.18
2017-07-23T05:22:19.340Z,74.95
2017-07-23T05:22:59.788Z,75.05
2017-07-23T05:23:40.295Z,74.79
2017-07-23T05:24:20.784Z,74.89
2017-07-23T05:25:01.308Z,74.31
2017-07-23T05:25:41.781Z,74.6
2017-07-23T05:26:22.253Z,74.69
2017-07-23T05:27:02.777Z,74.02
2017-07-23T05:27:43.324Z,73.93
2017-07-23T05:28:23.766Z,74.69
2017-07-23T05:29:04.260Z,74.25
2017-07-23T05:29:44.782Z,74.54
2017-07-23T05:30:25.287Z,74.25
2017-07-23T05:31:05.831Z,73.52
2017-07-23T05:31:46.309Z,72.61
2017-07-23T05:32:26.836Z,71.88
2017-07-23T05:33:07.317Z,71.74
2017-07-23T05:33:47.820Z,72.22
2017-07-23T05:34:28.316Z,72.61
2017-07-23T05:35:08.873Z,72.8
2017-07-23T05:35:49.328Z,72.9
2017-07-23T05:36:29.874Z,72.22
2017-07-23T05:37:10.356Z,71.84
2017-07-23T05:37:50.865Z,71.94
2017-07-23T05:38:31.393Z,71.68
2017-07-23T05:39:11.871Z,71.3
2017-07-23T05:39:52.297Z,71.2
2017-07-23T05:40:32.872Z,71.84
2017-07-23T05:41:13.390Z,71.36
2017-07-23T05:41:53.876Z,70.97
2017-07-23T05:42:34.368Z,71
2017-07-23T05:43:14.926Z,71.1
2017-07-23T05:43:55.464Z,70.62
2017-07-23T05:44:35.932Z,70.72
2017-07-23T05:45:16.443Z,70.62
2017-07-23T05:45:56.951Z,70.72
2017-07-23T05:46:37.422Z,71.3
2017-07-23T05:47:17.965Z,70.72
2017-07-23T05:47:58.406Z,70.42
2017-07-23T05:48:38.914Z,70.52
2017-07-23T05:49:19.407Z,70.68
2017-07-23T05:49:59.923Z,71.36
2017-07-23T05:50:40.397Z,71.74
2017-07-23T05:51:20.913Z,71.55
2017-07-23T05:52:01.420Z,71.36
2017-07-23T05:52:42.031Z,71.84
2017-07-23T05:53:22.522Z,71.36
2017-07-23T05:54:03.026Z,71.16
2017-07-23T05:54:43.574Z,71.22
2017-07-23T05:55:24.058Z,71.32
2017-07-23T05:56:04.588Z,70.94
2017-07-23T05:56:45.102Z,71.12
2017-07-23T05:57:25.570Z,71.12
2017-07-23T05:58:06.178Z,71.7
2017-07-23T05:58:46.644Z,71.61
2017-07-23T05:59:27.107Z,71.9
2017-07-23T06:00:07.659Z,71.7
2017-07-23T06:00:48.125Z,71.7
2017-07-23T06:01:29.203Z,72
2017-07-23T06:02:09.842Z,70.94
2017-07-23T06:02:50.161Z,70.58
2017-07-23T06:03:30.646Z,70
2017-07-23T06:04:11.132Z,70.45
2017-07-23T06:04:51.657Z,70.54
2017-07-23T06:05:32.148Z,70.74
2017-07-23T06:06:12.632Z,70.48
2017-07-23T06:06:53.214Z,69.58
2017-07-23T06:07:33.636Z,69.9
2017-07-23T06:08:14.164Z,70.1
2017-07-23T06:08:54.655Z,70
2017-07-23T06:09:35.272Z,69.71
2017-07-23T06:10:15.636Z,69.71
2017-07-23T06:10:56.170Z,69.62
2017-07-23T06:11:36.629Z,69.62
2017-07-23T06:12:17.165Z,68.84
2017-07-23T06:12:57.646Z,68.88
2017-07-23T06:13:38.155Z,68.84
2017-07-23T06:14:18.640Z,68.98
2017-07-23T06:14:59.146Z,68.46
2017-07-23T06:15:39.619Z,68.75
2017-07-23T06:16:20.090Z,68.84
2017-07-23T06:17:00.601Z,68.65
2017-07-23T06:17:41.086Z,68.1
2017-07-23T06:18:21.588Z,66.85
2017-07-23T06:19:02.139Z,66.94
2017-07-23T06:19:42.592Z,66.36
2017-07-23T06:20:23.042Z,66.56
2017-07-23T06:21:03.637Z,66.66
2017-07-23T06:21:44.120Z,66.66
2017-07-23T06:22:24.839Z,66.75
2017-07-23T06:23:05.144Z,66.56
2017-07-23T06:23:45.715Z,66.94
2017-07-23T06:24:26.158Z,66.75
2017-07-23T06:25:06.717Z,66.75
2017-07-23T06:25:47.198Z,66.94
2017-07-23T06:26:27.718Z,66.56
2017-07-23T06:27:08.198Z,66.5
2017-07-23T06:27:48.714Z,66.11
2017-07-23T06:28:29.166Z,65.82
2017-07-23T06:29:09.697Z,65.63
2017-07-23T06:29:50.179Z,65.43
2017-07-23T06:30:30.693Z,65.2
2017-07-23T06:31:11.210Z,65.59
2017-07-23T06:31:51.665Z,65.98
2017-07-23T06:32:32.184Z,65.98
2017-07-23T06:33:12.697Z,66.08
2017-07-23T06:33:53.183Z,65.88
2017-07-23T06:34:33.702Z,65.5
2017-07-23T06:35:14.184Z,65.72
2017-07-23T06:35:54.678Z,65.72
2017-07-23T06:36:35.164Z,66.01
2017-07-23T06:37:15.638Z,64.76
2017-07-23T06:37:56.132Z,64.76
2017-07-23T06:38:36.633Z,64.37
2017-07-23T06:39:17.133Z,64.27
2017-07-23T06:39:57.627Z,64.47
2017-07-23T06:40:38.101Z,64.47
2017-07-23T06:41:18.764Z,64.27
2017-07-23T06:41:59.216Z,64.08
2017-07-23T06:42:39.735Z,64.21
2017-07-23T06:43:20.201Z,64.01
2017-07-23T06:44:00.695Z,63.82
2017-07-23T06:44:41.252Z,63.53
2017-07-23T06:45:21.730Z,63.82
2017-07-23T06:46:02.247Z,63.24
2017-07-23T06:46:42.796Z,63.14
2017-07-23T06:47:23.229Z,63.11
2017-07-23T06:48:03.719Z,63.31
2017-07-23T06:48:44.220Z,64.21
2017-07-23T06:49:24.891Z,63.53
2017-07-23T06:50:05.430Z,63.89
2017-07-23T06:50:45.915Z,64.11
2017-07-23T06:51:26.680Z,63.82
2017-07-23T06:52:07.180Z,63.24
2017-07-23T06:52:47.706Z,63.82
2017-07-23T06:53:28.212Z,63.82
2017-07-23T06:54:08.682Z,63.46
2017-07-23T06:54:49.178Z,62.98
2017-07-23T06:55:29.674Z,62.98
2017-07-23T06:56:10.148Z,63.18
2017-07-23T06:56:50.692Z,63.08
2017-07-23T06:57:31.274Z,62.01
2017-07-23T06:58:11.829Z,61.92
2017-07-23T06:58:52.277Z,61.63
2017-07-23T06:59:32.821Z,61.82
2017-07-23T07:00:13.311Z,62.01
2017-07-23T07:00:53.818Z,61.92
2017-07-23T07:01:34.339Z,60.75
2017-07-23T07:02:14.926Z,61.05
2017-07-23T07:02:55.417Z,60.75
2017-07-23T07:03:35.962Z,60.57
2017-07-23T07:04:16.546Z,60.66
2017-07-23T07:04:57.028Z,60.47
2017-07-23T07:05:37.510Z,60.17
2017-07-23T07:06:18.061Z,60.37
2017-07-23T07:06:58.538Z,60.27
2017-07-23T07:07:39.087Z,60.27
2017-07-23T07:08:19.602Z,60.37
2017-07-23T07:09:00.075Z,60.66
2017-07-23T07:09:40.589Z,60.75
2017-07-23T07:10:21.100Z,59.72
2017-07-23T07:11:01.624Z,59.82
2017-07-23T07:11:42.147Z,59.36
2017-07-23T07:12:22.659Z,58.3
2017-07-23T07:13:03.138Z,58.14
2017-07-23T07:13:43.697Z,57.65
2017-07-23T07:14:24.183Z,58.14
2017-07-23T07:15:05.025Z,56.87
2017-07-23T07:15:45.385Z,56.77
2017-07-23T07:16:25.855Z,57.09
2017-07-23T07:17:06.397Z,56.32
2017-07-23T07:17:46.997Z,56.32
2017-07-23T07:18:27.546Z,56.23
2017-07-23T07:19:08.126Z,56.13
2017-07-23T07:19:48.614Z,56
2017-07-23T07:20:29.175Z,56.23
2017-07-23T07:21:09.671Z,55.93
2017-07-23T07:21:50.182Z,55.93
2017-07-23T07:22:30.679Z,56.51
2017-07-23T07:23:11.165Z,56.29
2017-07-23T07:23:51.766Z,56.29
2017-07-23T07:24:32.237Z,55.93
2017-07-23T07:25:12.811Z,56.29
2017-07-23T07:25:53.241Z,56.75
2017-07-23T07:26:33.768Z,57.23
2017-07-23T07:27:14.219Z,56.85
2017-07-23T07:27:54.767Z,56
2017-07-23T07:28:35.257Z,55.88
2017-07-23T07:29:15.794Z,56.26
2017-07-23T07:29:56.310Z,56.16
2017-07-23T07:30:36.772Z,56.2
2017-07-23T07:31:17.309Z,56
2017-07-23T07:31:57.791Z,56.1
2017-07-23T07:32:38.317Z,56.32
2017-07-23T07:33:18.815Z,55.42
2017-07-23T07:33:59.413Z,55.42
2017-07-23T07:34:39.947Z,55.98
2017-07-23T07:35:20.449Z,55.88
2017-07-23T07:36:00.960Z,56.1
2017-07-23T07:36:41.997Z,56.49
2017-07-23T07:37:22.657Z,56.23
2017-07-23T07:38:03.147Z,56.13
2017-07-23T07:38:43.732Z,55.83
2017-07-23T07:39:24.249Z,56.03
2017-07-23T07:40:04.685Z,56.1
2017-07-23T07:40:45.245Z,56.39
2017-07-23T07:41:25.708Z,55.62
2017-07-23T07:42:06.252Z,55.81
2017-07-23T07:42:46.717Z,56.29
2017-07-23T07:43:27.381Z,56.07
2017-07-23T07:44:07.818Z,55.88
2017-07-23T07:44:48.313Z,56.85
2017-07-23T07:45:28.930Z,56.85
2017-07-23T07:46:09.430Z,57.43
2017-07-23T07:46:49.885Z,57.04
2017-07-23T07:47:30.405Z,57.14
2017-07-23T07:48:10.915Z,57.43
2017-07-23T07:48:51.453Z,57.53
2017-07-23T07:49:31.951Z,57.53
2017-07-23T07:50:12.470Z,57.14
2017-07-23T07:50:52.957Z,56.36
2017-07-23T07:51:33.432Z,56.46
2017-07-23T07:52:13.929Z,56.85
2017-07-23T07:52:54.460Z,56.07
2017-07-23T07:53:34.987Z,55.68
2017-07-23T07:54:15.538Z,54.81
2017-07-23T07:54:56.089Z,55.1
2017-07-23T07:55:37.318Z,55
2017-07-23T07:56:17.895Z,55.88
2017-07-23T07:56:58.353Z,55.36
2017-07-23T07:57:39.078Z,55.49
2017-07-23T07:58:19.534Z,55
2017-07-23T07:59:00.012Z,55
2017-07-23T07:59:40.654Z,54.91
2017-07-23T08:00:21.204Z,54.81
2017-07-23T08:01:01.713Z,55
2017-07-23T08:01:42.355Z,54.33
2017-07-23T08:02:22.860Z,54.74
2017-07-23T08:03:03.390Z,53.39
2017-07-23T08:03:43.836Z,53.77
2017-07-23T08:04:25.212Z,53.19
2017-07-23T08:05:05.778Z,53.29
2017-07-23T08:05:46.399Z,52.58
2017-07-23T08:06:27.245Z,53.17
2017-07-23T08:07:07.770Z,52.78
2017-07-23T08:07:48.472Z,53.55
2017-07-23T08:08:28.943Z,54.33
2017-07-23T08:09:09.491Z,55
2017-07-23T08:09:49.950Z,53.97
2017-07-23T08:10:30.471Z,53.45
2017-07-23T08:11:11.068Z,53.97
2017-07-23T08:11:51.494Z,53.39
2017-07-23T08:12:32.123Z,53.29
2017-07-23T08:13:12.774Z,53.45
2017-07-23T08:13:53.322Z,53.07
2017-07-23T08:14:33.832Z,52.97
2017-07-23T08:15:14.346Z,52.42
2017-07-23T08:15:54.942Z,52.32
2017-07-23T08:16:35.659Z,52.71
2017-07-23T08:17:16.004Z,51.76
2017-07-23T08:17:56.537Z,51.86
2017-07-23T08:18:37.166Z,52.06
2017-07-23T08:19:17.803Z,51.67
2017-07-23T08:19:58.559Z,51.67
2017-07-23T08:20:39.144Z,51.09
2017-07-23T08:21:19.570Z,51.28
2017-07-23T08:22:00.043Z,51.28
2017-07-23T08:22:40.555Z,51.47
2017-07-23T08:23:21.079Z,51.25
2017-07-23T08:24:01.608Z,51.16
2017-07-23T08:24:42.118Z,50.67
2017-07-23T08:25:22.689Z,50.41
2017-07-23T08:26:03.275Z,50.67
2017-07-23T08:26:43.942Z,50.5
2017-07-23T08:27:24.684Z,50.21
2017-07-23T08:28:05.216Z,50.41
2017-07-23T08:28:45.967Z,50.31
2017-07-23T08:29:26.464Z,50.41
2017-07-23T08:31:45.040Z,49.63
2017-07-23T08:32:25.589Z,49.17
2017-07-23T08:33:06.346Z,48.97
2017-07-23T08:33:46.813Z,49.17
2017-07-23T08:34:27.343Z,49.37
2017-07-23T08:35:07.838Z,49.07
2017-07-23T08:35:48.421Z,49.17
2017-07-23T08:36:28.943Z,49.44
2017-07-23T08:37:09.413Z,49.73
2017-07-23T08:37:49.894Z,49.7
2017-07-23T08:38:30.440Z,49.68
2017-07-23T08:39:10.928Z,50.35
2017-07-23T08:39:51.423Z,50.26
2017-07-23T08:40:31.862Z,50.45
2017-07-23T08:41:12.355Z,50.55
2017-07-23T08:41:52.871Z,50.65
2017-07-23T08:42:33.476Z,50.45
2017-07-23T08:43:13.941Z,50.72
2017-07-23T08:43:54.412Z,50.52
2017-07-23T08:44:34.959Z,51.01
2017-07-23T08:45:15.435Z,50.74
2017-07-23T08:45:56.318Z,50.65
2017-07-23T08:46:36.876Z,50.65
2017-07-23T08:47:17.378Z,50.26